Track Склярова Карина

Time Latitude Longitude Accuracy (66% radius in meters) Altitude (meters) Speed (km/hour) Bearing (degrees) Battery (%) GPS flag
03:42:43 51.900426 107.667659 6 688 1.1900000572205 237.19999694824 27 1 delete
03:42:40 51.900462 107.667727 6 689 2.0199999809265 222.5 27 1 delete
03:42:38 51.900495 107.667780 5 690 2.3800001144409 246.10000610352 27 1 delete
03:42:34 51.900531 107.667925 4 689 2.0299999713898 262.60000610352 27 1 delete
03:42:29 51.900569 107.668063 4 690 1.460000038147 257.20001220703 27 1 delete
03:42:27 51.900583 107.668122 4 689 1.039999961853 263.60000610352 27 1 delete
03:42:21 51.900615 107.668221 5 690 0.75 256.20001220703 27 1 delete
03:42:16 51.900633 107.668310 3 691 1.3300000429153 272 27 1 delete
03:42:13 51.900628 107.668369 4 692 1.0099999904633 253.30000305176 27 1 delete
03:42:05 51.900631 107.668424 4 692 0 0 27 1 delete
03:41:54 51.900635 107.668424 5 691 0 0 27 1 delete
03:41:42 51.900633 107.668436 5 690 0 0 27 1 delete
03:41:31 51.900636 107.668495 7 686 0.28999999165535 349.70001220703 27 1 delete
03:41:21 51.900615 107.668523 7 688 0.47999998927116 350 27 1 delete
03:41:19 51.900598 107.668538 6 689 0.88999998569489 350.10000610352 27 1 delete
03:41:14 51.900535 107.668593 7 689 1.0299999713898 329.5 27 1 delete
03:41:09 51.900457 107.668678 6 688 1.460000038147 356.5 27 1 delete
03:41:08 51.900434 107.668696 6 688 1.7300000190735 355.29998779297 27 1 delete
03:41:05 51.900363 107.668764 5 689 1.289999961853 356.89999389648 27 1 delete
03:40:57 51.900288 107.668824 6 689 0 0 27 1 delete
03:40:50 51.900274 107.668882 6 691 0.44999998807907 333.60000610352 27 1 delete
03:40:45 51.900227 107.668936 7 692 0.74000000953674 286.89999389648 27 1 delete
03:40:40 51.900209 107.668983 5 692 0.94999998807907 286.89999389648 27 1 delete
03:40:34 51.900184 107.669008 5 692 0 0 27 1 delete
03:40:28 51.900126 107.669044 6 692 0.70999997854233 322.89999389648 27 1 delete
03:40:23 51.900066 107.669078 7 693 0 0 27 1 delete
03:40:14 51.900044 107.669109 6 691 0.41999998688698 15.199999809265 27 1 delete
03:40:12 51.900032 107.669107 6 691 0.72000002861023 21.10000038147 27 1 delete
03:40:02 51.899950 107.669115 5 692 0 0 27 1 delete
03:40:01 51.899944 107.669105 5 693 0.69999998807907 15.300000190735 27 1 delete
03:39:51 51.899860 107.669105 5 693 0.20999999344349 5.8000001907349 27 1 delete
03:39:49 51.899841 107.669106 5 691 1.289999961853 5.1999998092651 27 1 delete
03:39:44 51.899768 107.669110 5 691 0.97000002861023 8.8000001907349 27 1 delete
03:39:38 51.899692 107.669138 4 689 0.77999997138977 5.1999998092651 27 1 delete
03:39:36 51.899669 107.669147 4 688 1.4400000572205 355.79998779297 27 1 delete
03:39:12 51.899606 107.669168 3 690 0 0 27 1 delete
03:39:01 51.899570 107.669167 3 693 0 0 27 1 delete
03:38:55 51.899575 107.669171 4 691 0.77999997138977 186.80000305176 27 1 delete
03:38:49 51.899591 107.669186 3 692 0.56000000238419 173.19999694824 27 1 delete
03:38:42 51.899666 107.669158 4 693 1.3899999856949 169.30000305176 27 1 delete
03:38:38 51.899704 107.669159 4 694 1.0800000429153 162.10000610352 27 1 delete
03:38:32 51.899766 107.669114 4 693 0.93999999761581 187 27 1 delete
03:38:27 51.899819 107.669087 4 690 1.25 187.30000305176 27 1 delete
03:38:23 51.899857 107.669070 4 690 0.83999997377396 156.5 27 1 delete
03:38:17 51.899927 107.669019 5 688 0.70999997854233 170.60000610352 27 1 delete
03:38:15 51.899948 107.669007 5 688 1.3200000524521 170.60000610352 27 1 delete
03:38:10 51.900042 107.668982 6 688 1.75 190.89999389648 27 1 delete
03:38:07 51.900134 107.669004 6 687 1.3700000047684 191.10000610352 27 1 delete
03:38:06 51.900148 107.669002 5 687 1.3600000143051 188 27 1 delete
03:37:56 51.900228 107.669024 6 690 0 0 27 1 delete